Detall de PIREP

Printer-friendly versionPDF version

[2015/12/13 10:29:00]
Flight IATA:CT3234
Pilot Number:012
Company ICAO:CAT
Aircraft Type:B744/E
PAX:426
Departing Airport: LEPA
Destination Airport: LFPG
Alternate Airport:EBOS
Online: VATSIM
Route:MEROS UN853 LUMAS UM976 ETREK UN854 TINIL
Flight Level:F360
No Slew and time accel
No pause
Crash detect
Detect pilot in Cockpit between each 30 and 45 minutes
10:29 Zero fuel Weight: 482582 Lbs, Fuel Weight: 65403 Lbs
10:29 VATSIM:LEPA 131000Z 00000KT 9999 FEW025 16/13 Q1022 NOSIG
10:29 VATSIM:LFPG 131000Z VRB06KT 7000 FEW005 OVC006 07/05 Q1022 NOSIG
10:34 Parking Brakes off
10:39 Take-off
10:39 Take off Weight: 546150 Lbs
10:39 Wind: 000º @ 000 Knots Heading: 239º
10:39 POS N39º 33´ 16´´ E002º 43´ 34´´
10:39 Gear Up: 184 Knots
10:39 Flaps:3 at 184 Knots
10:39 Flaps:2 at 210 Knots
10:40 Flaps:1 at 220 Knots
10:41 Flaps:0 at 251 Knots
10:54 Wind:247º@010 Knots Heading: 042º Ground Speed: 492 Knots Altitude 34747 ft
10:54 TOC
10:54 Fuel Weight: 52178 Lb
11:09 Wind:260º@021 Knots Heading: 014º Ground Speed: 489 Knots Altitude 40285 ft
11:24 Wind:263º@017 Knots Heading: 339º Ground Speed: 476 Knots Altitude 40285 ft
11:39 Wind:273º@015 Knots Heading: 006º Ground Speed: 476 Knots Altitude 40288 ft
11:49 TOD
11:49 Fuel Weight: 34180 Lb
11:54 Wind:225º@008 Knots Heading: 318º Ground Speed: 409 Knots Altitude 25337 ft
12:09 Wind:178º@004 Knots Heading: 306º Ground Speed: 254 Knots Altitude 6443 ft
12:09 Flaps:1 at 232 Knots
12:09 Flaps:2 at 227 Knots
12:09 Flaps:3 at 209 Knots
12:12 Gear Down: 188 Knots
12:13 Flaps:4 at 179 Knots
12:13 Flaps:5 at 177 Knots
12:14 Flaps:6 at 166 Knots
12:19 TouchDown:Rate -352 ft/min Speed: 133 Knots
12:19 VATSIM:LFPG 131200Z 18004KT 110V230 7000 BKN005 07/05 Q1022 NOSIG
12:19 Land
12:19 Wind:191º@005 Knots
12:19 Heading: 263º
12:19 Flight Duration: 01:40
12:19 Landing Weight: 509682 Lbs
12:19 POS N48º 59´ 38´´ E002º 35´ 01´´
12:23 Parking brakes on
12:23 Block to Block Duration: 01:49
12:23 Final Fuel: 26459 Lbls
12:23 Spent Fuel: 38944 Lbls
12:23 Flight Length: 684 NM
12:23 TOD Land Length: 144 NM

Exportar CSV

Powered by Drupal - Modified by Danger4k